Time;durP1;ratioP1;P1;durP2;ratioP2;P2;SDS_P1;SDS_P2;PMS_P1;PMS_P2;Temp;Humidity;BMP_temperature;BMP_pressure;BME280_temperature;BME280_humidity;BME280_pressure;Samples;Min_cycle;Max_cycle;Signal;HPM_P1;HPM_P2
2021/12/07 00:01:33;;;;;;;30.75;20.50;;;4.00;99.90;;;;;;5036828;28;20194;-91
2021/12/07 00:03:59;;;;;;;30.80;20.48;;;4.00;99.90;;;;;;5037170;28;20178;-90
2021/12/07 00:06:25;;;;;;;34.70;21.53;;;4.00;99.90;;;;;;5037039;28;20191;-91
2021/12/07 00:08:54;;;;;;;31.08;20.10;;;4.00;99.90;;;;;;5036843;28;20423;-91
2021/12/07 00:11:22;;;;;;;35.17;20.73;;;4.00;99.90;;;;;;5052267;28;20690;-91
2021/12/07 00:13:49;;;;;;;32.38;21.13;;;4.00;99.90;;;;;;5052680;28;20175;-91
2021/12/07 00:16:15;;;;;;;34.78;21.98;;;3.90;99.90;;;;;;5036653;28;20191;-92
2021/12/07 00:18:41;;;;;;;34.87;21.73;;;3.90;99.90;;;;;;5052507;28;20644;-90
2021/12/07 00:21:08;;;;;;;28.60;20.10;;;4.00;99.90;;;;;;5052310;28;20435;-92
2021/12/07 00:23:35;;;;;;;39.05;21.58;;;4.00;99.90;;;;;;5041357;28;20179;-90
2021/12/07 00:26:01;;;;;;;32.50;19.88;;;4.00;99.90;;;;;;5072390;28;20274;-90
2021/12/07 00:28:27;;;;;;;27.97;20.30;;;4.00;99.90;;;;;;5069556;28;20189;-90
2021/12/07 00:30:55;;;;;;;35.10;22.03;;;4.00;99.90;;;;;;5027405;28;20198;-90
2021/12/07 00:35:50;;;;;;;32.08;19.83;;;4.00;99.90;;;;;;5037023;28;20677;-91
2021/12/07 00:38:22;;;;;;;32.13;20.05;;;4.00;99.90;;;;;;5018861;28;20218;-90
2021/12/07 00:40:49;;;;;;;32.78;21.50;;;4.00;99.90;;;;;;5018776;28;20195;-91
2021/12/07 00:43:16;;;;;;;38.15;22.08;;;4.00;99.90;;;;;;5050732;28;20190;-90
2021/12/07 00:45:45;;;;;;;33.83;21.13;;;4.00;99.90;;;;;;5018424;28;20641;-91
2021/12/07 00:48:14;;;;;;;30.58;20.77;;;4.00;99.90;;;;;;5036511;28;20201;-91
2021/12/07 00:50:43;;;;;;;34.17;23.13;;;4.00;99.90;;;;;;5051336;28;20568;-91
2021/12/07 00:53:09;;;;;;;33.80;22.08;;;4.00;99.90;;;;;;5052095;28;20232;-92
2021/12/07 00:55:40;;;;;;;33.97;21.67;;;3.90;99.90;;;;;;5035866;28;20203;-91
2021/12/07 00:58:16;;;;;;;30.98;20.70;;;4.00;99.90;;;;;;5036367;28;20545;-90
2021/12/07 01:00:42;;;;;;;33.20;19.75;;;4.00;99.90;;;;;;5051526;28;20340;-91
2021/12/07 01:03:08;;;;;;;34.17;20.77;;;3.90;99.90;;;;;;5036130;28;20647;-90
2021/12/07 01:05:35;;;;;;;34.00;21.30;;;3.90;99.90;;;;;;5035803;28;20271;-90
2021/12/07 01:27:03;;;;;;;29.83;19.98;;;3.80;99.90;;;;;;5036689;28;20193;-90
2021/12/07 01:29:30;;;;;;;31.45;19.20;;;3.80;99.90;;;;;;5051464;28;20217;-92
2021/12/07 01:32:22;;;;;;;33.63;20.30;;;3.80;99.90;;;;;;5051000;28;20266;-90
2021/12/07 01:49:38;;;;;;;37.93;21.17;;;3.70;99.90;;;;;;5035533;28;20171;-91
2021/12/07 02:01:45;;;;;;;31.90;20.13;;;3.60;99.90;;;;;;5046706;28;20255;-91
2021/12/07 02:04:10;;;;;;;34.60;21.50;;;3.60;99.90;;;;;;5061593;28;20643;-90
2021/12/07 02:06:36;;;;;;;29.97;19.93;;;3.60;99.90;;;;;;5060258;28;20197;-90
2021/12/07 02:09:05;;;;;;;35.70;21.13;;;3.60;99.90;;;;;;5039930;28;20181;-90
2021/12/07 02:11:31;;;;;;;35.03;20.95;;;3.60;99.90;;;;;;5041641;28;20202;-91
2021/12/07 02:16:27;;;;;;;32.53;20.20;;;3.50;99.90;;;;;;5036978;28;20197;-92
2021/12/07 02:18:53;;;;;;;33.63;20.70;;;3.50;99.90;;;;;;5050576;28;20194;-91
2021/12/07 02:21:20;;;;;;;34.00;20.70;;;3.50;99.90;;;;;;5034708;28;20190;-89
2021/12/07 02:23:46;;;;;;;39.75;22.40;;;3.50;99.90;;;;;;5050515;28;20447;-91
2021/12/07 02:26:12;;;;;;;35.72;21.08;;;3.40;99.90;;;;;;5050333;28;20226;-91
2021/12/07 02:28:39;;;;;;;29.45;21.00;;;3.40;99.90;;;;;;5050502;28;20178;-89
2021/12/07 02:31:06;;;;;;;32.50;20.20;;;3.40;99.90;;;;;;5050218;28;20198;-90
2021/12/07 02:33:33;;;;;;;31.17;19.20;;;3.40;99.90;;;;;;5019926;28;20190;-90
2021/12/07 02:35:59;;;;;;;35.80;20.33;;;3.40;99.90;;;;;;5051724;28;20207;-92
2021/12/07 02:38:25;;;;;;;31.20;19.40;;;3.40;99.90;;;;;;5035728;28;20277;-92
2021/12/07 02:40:51;;;;;;;32.60;20.77;;;3.40;99.90;;;;;;5034701;28;20432;-91
2021/12/07 02:43:16;;;;;;;33.60;20.63;;;3.40;99.90;;;;;;5050303;28;20336;-90
2021/12/07 02:45:43;;;;;;;33.87;19.97;;;3.50;99.90;;;;;;5034485;28;20242;-90
2021/12/07 02:48:09;;;;;;;29.42;19.55;;;3.50;99.90;;;;;;5017560;28;20681;-90
2021/12/07 02:50:35;;;;;;;30.93;20.53;;;3.50;99.90;;;;;;5052718;28;20226;-90
2021/12/07 02:53:02;;;;;;;34.42;20.05;;;3.50;99.90;;;;;;5043565;28;20438;-90
2021/12/07 02:55:30;;;;;;;35.65;19.20;;;3.50;99.90;;;;;;5053725;28;20266;-91
2021/12/07 02:57:56;;;;;;;37.95;21.40;;;3.50;99.90;;;;;;5044207;28;20241;-92
2021/12/07 03:00:26;;;;;;;32.90;19.10;;;3.50;99.90;;;;;;5060888;28;20199;-88
2021/12/07 03:03:01;;;;;;;32.92;19.85;;;3.50;99.90;;;;;;5068364;28;20436;-91
2021/12/07 03:26:42;;;;;;;33.92;20.55;;;3.50;99.90;;;;;;5039887;28;20236;-91
2021/12/07 03:29:08;;;;;;;30.30;19.50;;;3.40;99.90;;;;;;5037159;28;20222;-91
2021/12/07 03:31:36;;;;;;;30.40;19.90;;;3.40;99.90;;;;;;5070428;28;20198;-89
2021/12/07 03:34:02;;;;;;;30.63;19.52;;;3.40;99.90;;;;;;5031270;28;20178;-91
2021/12/07 03:36:29;;;;;;;36.90;20.77;;;3.40;99.90;;;;;;5064229;28;20202;-89
2021/12/07 03:38:55;;;;;;;30.67;20.00;;;3.40;99.90;;;;;;5053307;28;20246;-89
2021/12/07 03:41:21;;;;;;;35.78;20.15;;;3.40;99.90;;;;;;5037178;28;20199;-92
2021/12/07 03:43:47;;;;;;;34.13;20.48;;;3.40;99.90;;;;;;5053385;28;20631;-90
2021/12/07 03:46:14;;;;;;;32.28;20.73;;;3.40;99.90;;;;;;5052701;28;20238;-90
2021/12/07 03:48:41;;;;;;;36.22;19.85;;;3.30;99.90;;;;;;5020342;28;20616;-89
2021/12/07 03:51:08;;;;;;;32.97;19.20;;;3.30;99.90;;;;;;5037964;28;20194;-91
2021/12/07 03:53:34;;;;;;;37.08;21.20;;;3.30;99.90;;;;;;5053115;28;20579;-92
2021/12/07 03:56:01;;;;;;;30.83;19.45;;;3.40;99.90;;;;;;5037131;28;20226;-92
2021/12/07 03:58:27;;;;;;;37.55;20.15;;;3.40;99.90;;;;;;5037646;28;20206;-90
2021/12/07 04:00:54;;;;;;;31.73;19.40;;;3.40;99.90;;;;;;5052913;28;20241;-91
2021/12/07 04:03:20;;;;;;;36.85;20.95;;;3.40;99.90;;;;;;5019907;28;20474;-90
2021/12/07 04:05:49;;;;;;;33.05;19.45;;;3.40;99.90;;;;;;5019493;28;20202;-90
2021/12/07 04:08:18;;;;;;;29.45;18.23;;;3.40;99.90;;;;;;5052772;28;20555;-92
2021/12/07 04:10:45;;;;;;;32.90;20.33;;;3.40;99.90;;;;;;5019123;28;20218;-90
2021/12/07 04:13:11;;;;;;;35.22;21.48;;;3.40;99.90;;;;;;5053048;28;20257;-90
2021/12/07 04:15:37;;;;;;;29.70;19.27;;;3.30;99.90;;;;;;5019396;28;20203;-92
2021/12/07 04:18:04;;;;;;;35.17;20.10;;;3.30;99.90;;;;;;5052110;28;20218;-91
2021/12/07 04:20:30;;;;;;;32.13;18.17;;;3.30;99.90;;;;;;5019422;28;20296;-90
2021/12/07 04:22:57;;;;;;;32.08;18.65;;;3.30;99.90;;;;;;5052458;28;20193;-92
2021/12/07 04:25:23;;;;;;;29.80;18.92;;;3.30;99.90;;;;;;5036760;28;20201;-92
2021/12/07 04:27:51;;;;;;;36.78;19.90;;;3.40;99.90;;;;;;5052651;28;20194;-90
2021/12/07 04:30:26;;;;;;;30.15;18.63;;;3.40;99.90;;;;;;5040800;28;20191;-92
2021/12/07 04:32:52;;;;;;;32.80;19.52;;;3.40;99.90;;;;;;5073570;28;20182;-90
2021/12/07 04:35:20;;;;;;;32.00;20.70;;;3.40;99.90;;;;;;5059176;28;20213;-90
2021/12/07 04:37:46;;;;;;;34.28;19.80;;;3.40;99.90;;;;;;5030902;28;20218;-92
2021/12/07 04:40:16;;;;;;;33.92;19.77;;;3.40;99.90;;;;;;5063591;28;20667;-92
2021/12/07 04:42:44;;;;;;;29.52;17.00;;;3.50;99.90;;;;;;5052155;28;20506;-91
2021/12/07 04:45:19;;;;;;;31.73;19.85;;;3.50;99.90;;;;;;5051417;28;20241;-91
2021/12/07 04:58:24;;;;;;;37.55;20.88;;;3.50;99.90;;;;;;5036571;28;20210;-90
2021/12/07 05:00:50;;;;;;;38.13;20.50;;;3.50;99.90;;;;;;5035945;28;20203;-89
2021/12/07 05:03:16;;;;;;;34.47;18.98;;;3.50;99.90;;;;;;5051714;28;20451;-91
2021/12/07 05:05:49;;;;;;;39.10;20.10;;;3.50;99.90;;;;;;5051757;28;20317;-92
2021/12/07 05:08:22;;;;;;;30.40;20.20;;;3.50;99.90;;;;;;5035844;28;20419;-91
2021/12/07 05:13:30;;;;;;;29.08;16.13;;;3.70;99.90;;;;;;5036291;28;20196;-89
2021/12/07 05:16:06;;;;;;;34.92;18.58;;;4.00;99.90;;;;;;5051263;28;20209;-89
2021/12/07 05:23:56;;;;;;;36.00;19.33;;;4.50;99.90;;;;;;5038742;28;20192;-91
2021/12/07 05:40:00;;;;;;;28.55;18.40;;;3.90;99.90;;;;;;5035611;28;20281;-91
2021/12/07 05:42:27;;;;;;;33.33;19.50;;;3.80;99.90;;;;;;5017798;28;20192;-91
2021/12/07 05:44:54;;;;;;;34.58;20.50;;;3.80;99.90;;;;;;5017384;28;20230;-91
2021/12/07 05:47:21;;;;;;;31.00;18.77;;;3.70;99.90;;;;;;5050125;28;20191;-89
2021/12/07 05:49:47;;;;;;;34.55;19.88;;;3.70;99.90;;;;;;5015653;28;20175;-89
2021/12/07 05:52:13;;;;;;;34.03;20.67;;;3.60;99.90;;;;;;5029360;28;20179;-91
2021/12/07 05:54:39;;;;;;;30.98;18.17;;;3.60;99.90;;;;;;5010956;28;20952;-91
2021/12/07 05:57:05;;;;;;;30.48;18.75;;;3.60;99.90;;;;;;5032406;28;20233;-92
2021/12/07 05:59:31;;;;;;;30.45;17.80;;;3.50;99.90;;;;;;5032338;28;20197;-91
2021/12/07 06:01:56;;;;;;;31.93;20.13;;;3.50;99.90;;;;;;5016524;28;20624;-88
2021/12/07 06:04:22;;;;;;;31.40;19.03;;;3.50;99.90;;;;;;5033476;28;20995;-90
2021/12/07 06:06:48;;;;;;;31.23;18.80;;;3.50;99.90;;;;;;5050896;28;20198;-92
2021/12/07 06:09:14;;;;;;;37.63;20.50;;;3.50;99.90;;;;;;5028436;28;20604;-88
2021/12/07 06:11:42;;;;;;;30.52;17.70;;;3.50;99.90;;;;;;4997418;28;20203;-92
2021/12/07 06:14:11;;;;;;;30.30;20.88;;;3.50;99.90;;;;;;5006417;28;20179;-92
2021/12/07 06:16:37;;;;;;;34.42;18.63;;;3.40;99.90;;;;;;5050777;28;20317;-91
2021/12/07 06:19:03;;;;;;;31.70;19.52;;;3.40;99.90;;;;;;5050017;28;20269;-88
2021/12/07 06:21:31;;;;;;;32.60;20.40;;;3.40;99.90;;;;;;5016036;28;20252;-92
2021/12/07 06:23:57;;;;;;;32.17;18.77;;;3.30;99.90;;;;;;5008417;28;20911;-92
2021/12/07 06:26:22;;;;;;;32.30;21.30;;;3.30;99.90;;;;;;5037863;28;20277;-91
2021/12/07 06:28:48;;;;;;;34.63;20.60;;;3.30;99.90;;;;;;5055175;28;20203;-91
2021/12/07 06:31:14;;;;;;;36.33;20.70;;;3.20;99.90;;;;;;5050529;28;20618;-88
2021/12/07 06:33:40;;;;;;;36.07;21.60;;;3.20;99.90;;;;;;5013628;28;20613;-89
2021/12/07 06:36:06;;;;;;;34.43;19.23;;;3.20;99.90;;;;;;5011950;28;20248;-89
2021/12/07 06:38:34;;;;;;;31.98;20.63;;;3.20;99.90;;;;;;4995457;28;20478;-91
2021/12/07 06:41:03;;;;;;;36.10;20.50;;;3.10;99.90;;;;;;4996853;28;20210;-89
2021/12/07 06:43:30;;;;;;;37.72;21.08;;;3.10;99.90;;;;;;4998295;28;20299;-89
2021/12/07 06:45:56;;;;;;;37.97;22.42;;;3.10;99.90;;;;;;5017584;28;20241;-92
2021/12/07 06:48:21;;;;;;;31.80;20.80;;;3.10;99.90;;;;;;5004176;28;20681;-91
2021/12/07 06:50:48;;;;;;;37.70;21.00;;;3.00;99.90;;;;;;4998892;28;20206;-91
2021/12/07 06:53:14;;;;;;;36.33;21.38;;;3.10;99.90;;;;;;5014433;28;20178;-91
2021/12/07 06:55:40;;;;;;;38.27;21.93;;;3.00;99.90;;;;;;5028785;28;20553;-89
2021/12/07 06:58:06;;;;;;;35.20;20.30;;;3.00;99.90;;;;;;4999551;28;20471;-88
2021/12/07 07:00:33;;;;;;;34.83;20.00;;;3.00;99.90;;;;;;5014335;28;20462;-92
2021/12/07 07:02:59;;;;;;;34.97;21.40;;;3.00;99.90;;;;;;5015217;28;20195;-92
2021/12/07 07:05:25;;;;;;;35.27;20.07;;;3.00;99.90;;;;;;5016866;28;20257;-88
2021/12/07 07:07:50;;;;;;;37.50;22.63;;;3.00;99.90;;;;;;5017644;28;20513;-91
2021/12/07 07:10:18;;;;;;;38.63;21.53;;;3.00;99.90;;;;;;5018988;28;20429;-89
2021/12/07 07:12:45;;;;;;;39.60;23.02;;;3.00;99.90;;;;;;5020078;28;20484;-92
2021/12/07 07:15:12;;;;;;;41.95;21.40;;;2.90;99.90;;;;;;5036337;28;20194;-91
2021/12/07 07:17:38;;;;;;;41.35;23.83;;;2.90;99.90;;;;;;5019399;28;20268;-91
2021/12/07 07:20:06;;;;;;;38.70;22.08;;;2.90;99.90;;;;;;5020960;28;20194;-88
2021/12/07 07:22:32;;;;;;;42.83;22.63;;;2.90;99.90;;;;;;5013535;28;20171;-91
2021/12/07 07:24:58;;;;;;;38.03;22.17;;;2.90;99.90;;;;;;5028492;28;20209;-89
2021/12/07 07:27:24;;;;;;;39.37;21.53;;;2.90;99.90;;;;;;5035130;28;20186;-92
2021/12/07 07:29:49;;;;;;;38.37;22.60;;;3.00;99.90;;;;;;5029022;28;20195;-91
2021/12/07 07:32:15;;;;;;;37.90;23.33;;;3.00;99.90;;;;;;5023704;28;20402;-92
2021/12/07 07:34:41;;;;;;;40.00;22.53;;;3.00;99.90;;;;;;5029679;28;20542;-89
2021/12/07 07:37:07;;;;;;;39.80;23.53;;;3.00;99.90;;;;;;5038265;28;20214;-89
2021/12/07 07:39:33;;;;;;;38.85;22.50;;;3.00;99.90;;;;;;5045082;28;20416;-89
2021/12/07 07:41:59;;;;;;;39.05;23.20;;;3.00;99.90;;;;;;5014513;28;20627;-89
2021/12/07 07:44:24;;;;;;;39.43;21.30;;;3.00;99.90;;;;;;5018455;28;20265;-89
2021/12/07 07:46:50;;;;;;;38.27;23.40;;;3.00;99.90;;;;;;5032847;28;20210;-92
2021/12/07 07:49:16;;;;;;;36.03;21.73;;;3.00;99.90;;;;;;5043128;28;20301;-89
2021/12/07 07:51:42;;;;;;;39.10;22.73;;;2.90;99.90;;;;;;5016916;28;20194;-89
2021/12/07 07:54:08;;;;;;;39.33;22.20;;;2.90;99.90;;;;;;5034570;28;20179;-88
2021/12/07 07:56:36;;;;;;;42.35;24.88;;;2.90;99.90;;;;;;5012977;28;20210;-93
2021/12/07 07:59:02;;;;;;;37.63;22.13;;;2.90;99.90;;;;;;5027088;28;20214;-92
2021/12/07 08:01:31;;;;;;;36.75;22.02;;;2.90;99.90;;;;;;5000379;28;20207;-92
2021/12/07 08:03:59;;;;;;;42.38;25.35;;;2.90;99.90;;;;;;5008198;28;20190;-92
2021/12/07 08:06:25;;;;;;;41.83;22.63;;;2.90;99.90;;;;;;5021468;28;20207;-90
2021/12/07 08:08:52;;;;;;;39.28;24.77;;;2.90;99.90;;;;;;5012608;28;20202;-88
2021/12/07 08:11:18;;;;;;;36.85;22.70;;;2.90;99.90;;;;;;5016893;28;20202;-89
2021/12/07 08:13:43;;;;;;;38.90;22.03;;;2.90;99.90;;;;;;5013294;28;20198;-88
2021/12/07 08:16:15;;;;;;;44.57;23.87;;;2.90;99.90;;;;;;4998792;28;20202;-92
2021/12/07 08:18:50;;;;;;;38.10;23.15;;;2.90;99.90;;;;;;5016282;28;20228;-93
2021/12/07 08:21:16;;;;;;;46.33;24.58;;;2.90;99.90;;;;;;5030157;28;20289;-93
2021/12/07 08:23:43;;;;;;;40.80;23.40;;;2.90;99.90;;;;;;5055420;28;20217;-93
2021/12/07 08:26:13;;;;;;;43.30;23.30;;;2.90;99.90;;;;;;5028218;28;20194;-89
2021/12/07 08:28:39;;;;;;;34.70;20.50;;;2.90;99.90;;;;;;5017422;28;20561;-93
2021/12/07 08:31:05;;;;;;;35.23;21.10;;;2.90;99.90;;;;;;5046717;28;20194;-89
2021/12/07 08:33:31;;;;;;;36.37;21.63;;;2.90;99.90;;;;;;5015826;28;20428;-90
2021/12/07 08:36:00;;;;;;;36.95;22.98;;;3.00;99.90;;;;;;5034310;28;20474;-93
2021/12/07 08:38:26;;;;;;;38.03;23.08;;;3.00;99.90;;;;;;5010285;28;20218;-89
2021/12/07 08:40:55;;;;;;;38.13;22.73;;;3.00;99.90;;;;;;5034138;28;20210;-90
2021/12/07 08:43:26;;;;;;;39.97;23.83;;;3.00;99.90;;;;;;5016234;28;20587;-93
2021/12/07 08:45:53;;;;;;;38.30;23.30;;;3.00;99.90;;;;;;5022486;28;20235;-90
2021/12/07 08:48:19;;;;;;;38.67;21.27;;;3.10;99.90;;;;;;5013888;28;20187;-92
2021/12/07 08:50:45;;;;;;;38.23;23.40;;;3.10;99.90;;;;;;5016887;28;20361;-93
2021/12/07 08:53:14;;;;;;;39.30;22.42;;;3.10;99.90;;;;;;5033316;28;20423;-92
2021/12/07 09:01:14;;;;;;;36.67;22.13;;;3.30;99.90;;;;;;5030437;28;20237;-89
2021/12/07 09:03:40;;;;;;;42.45;22.33;;;3.30;99.90;;;;;;5035690;28;20214;-89
2021/12/07 09:06:06;;;;;;;38.10;23.20;;;3.40;99.90;;;;;;5030870;28;20206;-89
2021/12/07 09:08:31;;;;;;;35.75;21.67;;;3.50;99.90;;;;;;5026141;28;20178;-88
2021/12/07 09:10:57;;;;;;;39.17;23.23;;;3.60;99.90;;;;;;5031782;28;20206;-88
2021/12/07 09:13:26;;;;;;;40.70;24.20;;;3.70;99.90;;;;;;5038099;28;20644;-91
2021/12/07 09:15:52;;;;;;;37.67;21.38;;;3.80;99.90;;;;;;5012471;28;20203;-89
2021/12/07 09:18:18;;;;;;;39.83;20.85;;;3.80;99.90;;;;;;5012924;28;20218;-90
2021/12/07 09:20:44;;;;;;;31.37;21.30;;;4.00;99.90;;;;;;5009084;28;20194;-90
2021/12/07 09:23:10;;;;;;;35.10;20.83;;;4.10;99.90;;;;;;5029307;28;20190;-90
2021/12/07 09:25:37;;;;;;;34.60;21.03;;;4.20;99.90;;;;;;5013831;28;20621;-90
2021/12/07 09:28:03;;;;;;;42.55;23.35;;;4.20;99.90;;;;;;5019189;28;20189;-88
2021/12/07 09:30:30;;;;;;;33.30;20.70;;;4.30;99.90;;;;;;4989023;28;20674;-89
2021/12/07 09:32:56;;;;;;;32.40;20.08;;;4.40;99.90;;;;;;5009281;28;20616;-90
2021/12/07 09:35:22;;;;;;;35.03;21.40;;;4.50;99.90;;;;;;5002639;28;20236;-93
2021/12/07 09:37:51;;;;;;;40.08;25.70;;;4.60;99.90;;;;;;5014667;28;20562;-90
2021/12/07 09:40:23;;;;;;;33.25;20.67;;;4.60;99.90;;;;;;5012797;28;20210;-92
2021/12/07 09:42:50;;;;;;;32.65;20.95;;;4.70;99.90;;;;;;5003974;28;20250;-91
2021/12/07 09:45:17;;;;;;;36.17;20.55;;;4.70;99.90;;;;;;5017114;28;20292;-93
2021/12/07 09:47:43;;;;;;;36.65;21.38;;;4.70;99.90;;;;;;5014072;28;20190;-90
2021/12/07 09:50:12;;;;;;;36.90;21.13;;;4.70;99.90;;;;;;5012938;28;20257;-90
2021/12/07 09:52:38;;;;;;;33.10;21.63;;;4.70;99.90;;;;;;4993071;28;20242;-94
2021/12/07 09:55:04;;;;;;;33.47;20.80;;;4.70;99.90;;;;;;4995149;28;20238;-93
2021/12/07 09:57:30;;;;;;;41.22;24.17;;;4.70;99.90;;;;;;5008051;28;20219;-90
2021/12/07 09:59:56;;;;;;;39.10;23.07;;;4.70;99.90;;;;;;4995619;28;20261;-90
2021/12/07 10:02:22;;;;;;;48.05;32.35;;;4.70;99.90;;;;;;5010175;28;20189;-93
2021/12/07 10:04:48;;;;;;;40.25;23.35;;;4.70;99.90;;;;;;4992485;28;20183;-93
2021/12/07 10:07:14;;;;;;;38.90;21.80;;;4.70;99.90;;;;;;5014781;28;20585;-92
2021/12/07 10:09:41;;;;;;;35.42;22.42;;;4.80;99.90;;;;;;5004071;28;20461;-92
2021/12/07 10:12:08;;;;;;;35.38;22.40;;;4.80;99.90;;;;;;5002304;28;20671;-92
2021/12/07 10:14:39;;;;;;;39.30;22.63;;;4.80;99.90;;;;;;5006024;28;20183;-89
2021/12/07 10:17:05;;;;;;;34.13;21.35;;;4.90;99.90;;;;;;4982755;28;20190;-87
2021/12/07 10:19:35;;;;;;;37.13;23.03;;;5.00;99.90;;;;;;4992998;28;20179;-89
2021/12/07 10:22:15;;;;;;;35.42;21.40;;;5.10;99.90;;;;;;5012300;28;20454;-89
2021/12/07 10:24:51;;;;;;;37.83;21.42;;;5.20;99.90;;;;;;5006242;28;20175;-94
2021/12/07 10:27:38;;;;;;;34.85;20.45;;;5.40;99.90;;;;;;4992915;28;20190;-89
2021/12/07 10:30:06;;;;;;;36.25;23.00;;;5.60;99.90;;;;;;4992111;28;20260;-89
2021/12/07 10:32:32;;;;;;;36.72;21.55;;;5.80;99.90;;;;;;4993755;28;20184;-93
2021/12/07 10:34:58;;;;;;;40.50;22.70;;;5.90;99.90;;;;;;5002686;28;20209;-92
2021/12/07 10:37:24;;;;;;;37.90;21.07;;;6.10;99.90;;;;;;5011381;28;20955;-93
2021/12/07 10:39:57;;;;;;;35.63;21.38;;;6.10;99.90;;;;;;4989024;28;20196;-93
2021/12/07 10:42:29;;;;;;;34.13;21.92;;;6.20;99.90;;;;;;5004217;28;20273;-89
2021/12/07 10:44:58;;;;;;;34.50;21.50;;;6.10;99.90;;;;;;5006863;28;20245;-90
2021/12/07 10:47:25;;;;;;;36.17;21.70;;;6.10;99.90;;;;;;5008453;28;20272;-92
2021/12/07 10:50:01;;;;;;;30.65;20.15;;;6.10;99.90;;;;;;5005018;28;20210;-93
2021/12/07 10:52:42;;;;;;;38.47;22.33;;;6.20;99.90;;;;;;5007386;28;20178;-93
2021/12/07 10:55:15;;;;;;;37.33;23.88;;;6.20;99.90;;;;;;5024393;28;20206;-93
2021/12/07 10:57:54;;;;;;;38.33;21.65;;;6.20;99.90;;;;;;5023813;28;20209;-89
2021/12/07 11:00:29;;;;;;;36.97;22.67;;;6.30;99.90;;;;;;5011690;28;20218;-93
2021/12/07 11:03:01;;;;;;;34.33;20.15;;;6.30;99.90;;;;;;5012090;28;20190;-93
2021/12/07 11:05:34;;;;;;;34.22;20.67;;;6.30;99.90;;;;;;5022789;28;20242;-94
2021/12/07 11:08:01;;;;;;;33.40;21.92;;;6.40;99.90;;;;;;5012438;28;20545;-93
2021/12/07 11:10:31;;;;;;;35.72;21.83;;;6.40;99.90;;;;;;5043844;28;20190;-93
2021/12/07 11:15:31;;;;;;;36.83;22.52;;;6.50;99.90;;;;;;5024158;28;20214;-92
2021/12/07 11:18:05;;;;;;;30.33;19.85;;;6.50;99.90;;;;;;5015196;28;20222;-94
2021/12/07 11:20:32;;;;;;;31.77;21.17;;;6.50;99.90;;;;;;5013761;28;20207;-90
2021/12/07 11:23:06;;;;;;;41.10;24.27;;;6.60;99.90;;;;;;5011673;28;20186;-90
2021/12/07 11:31:21;;;;;;;35.45;21.70;;;7.00;99.90;;;;;;5029725;28;20269;-89
2021/12/07 11:33:49;;;;;;;36.58;21.23;;;7.10;99.90;;;;;;5015678;28;20182;-93
2021/12/07 11:36:21;;;;;;;29.70;19.80;;;7.20;99.90;;;;;;5016357;28;20232;-93
2021/12/07 11:38:48;;;;;;;33.83;21.38;;;7.30;99.90;;;;;;5013309;28;20297;-94
2021/12/07 11:41:27;;;;;;;31.10;20.20;;;7.40;99.90;;;;;;5017728;28;20206;-89
2021/12/07 11:44:11;;;;;;;36.65;20.58;;;7.40;99.90;;;;;;5025098;28;20183;-90
2021/12/07 11:46:38;;;;;;;33.22;20.75;;;7.50;99.90;;;;;;5015236;28;20209;-89
2021/12/07 11:49:37;;;;;;;34.22;20.70;;;7.50;99.90;;;;;;5031085;28;20209;-89
2021/12/07 11:52:05;;;;;;;35.00;20.77;;;7.60;99.90;;;;;;4999711;28;20210;-93
2021/12/07 11:54:38;;;;;;;32.35;20.33;;;7.60;99.90;;;;;;5032760;28;20182;-89
2021/12/07 11:57:08;;;;;;;29.92;19.65;;;7.70;99.90;;;;;;5020483;28;20182;-89
2021/12/07 11:59:34;;;;;;;31.90;18.80;;;7.70;99.90;;;;;;5031911;28;20217;-93
2021/12/07 12:02:00;;;;;;;29.52;18.55;;;7.80;99.90;;;;;;5027673;28;20194;-92
2021/12/07 12:04:26;;;;;;;35.13;21.55;;;7.80;99.90;;;;;;5013201;28;20197;-89
2021/12/07 12:06:56;;;;;;;29.70;21.07;;;7.80;99.90;;;;;;5028597;28;20216;-91
2021/12/07 12:09:24;;;;;;;33.60;20.15;;;7.80;99.90;;;;;;5013622;28;20182;-92
2021/12/07 12:12:13;;;;;;;29.77;19.45;;;7.80;99.90;;;;;;5019055;28;20293;-94
2021/12/07 12:14:56;;;;;;;32.33;19.23;;;7.80;99.90;;;;;;5051690;28;20561;-90
2021/12/07 12:17:52;;;;;;;32.33;19.67;;;7.80;99.90;;;;;;5009458;28;20241;-89
2021/12/07 12:20:31;;;;;;;32.30;19.02;;;7.80;99.90;;;;;;5028677;28;20272;-92
2021/12/07 12:23:02;;;;;;;36.10;20.55;;;7.80;99.90;;;;;;5008600;28;20707;-92
2021/12/07 12:25:28;;;;;;;30.60;20.25;;;7.80;99.90;;;;;;5035971;28;20714;-93
2021/12/07 12:27:56;;;;;;;34.03;21.25;;;7.80;99.90;;;;;;5029930;28;20187;-92
2021/12/07 12:30:32;;;;;;;34.50;20.58;;;7.80;99.90;;;;;;5004802;28;20207;-89
2021/12/07 12:33:04;;;;;;;30.65;20.10;;;7.80;99.90;;;;;;5036436;28;20200;-89
2021/12/07 12:35:38;;;;;;;34.50;20.80;;;7.70;99.90;;;;;;5006328;28;20202;-88
2021/12/07 12:38:23;;;;;;;36.50;22.85;;;7.60;99.90;;;;;;5010347;28;20207;-89
2021/12/07 12:41:02;;;;;;;33.72;21.13;;;7.40;99.90;;;;;;5011355;28;20233;-89
2021/12/07 12:43:52;;;;;;;33.78;20.98;;;7.20;99.90;;;;;;5013683;28;20183;-88
2021/12/07 12:46:31;;;;;;;33.03;22.92;;;7.20;99.90;;;;;;5009594;28;20303;-92
2021/12/07 12:49:07;;;;;;;34.28;20.15;;;7.10;99.90;;;;;;4995252;28;20272;-89
2021/12/07 12:51:59;;;;;;;37.08;22.35;;;6.90;99.90;;;;;;4987878;28;20230;-90
2021/12/07 12:54:25;;;;;;;27.10;19.25;;;6.90;99.90;;;;;;4996556;28;20298;-88
2021/12/07 12:56:51;;;;;;;38.27;21.73;;;6.80;99.90;;;;;;5012655;28;20297;-92
2021/12/07 12:59:20;;;;;;;30.03;19.10;;;6.70;99.90;;;;;;4996401;28;20230;-89
2021/12/07 13:01:46;;;;;;;41.25;23.30;;;6.70;99.90;;;;;;4992035;28;20195;-92
2021/12/07 13:04:16;;;;;;;34.72;21.63;;;6.60;99.90;;;;;;5009346;28;20303;-89
2021/12/07 13:06:46;;;;;;;37.50;21.73;;;6.50;99.90;;;;;;5012655;28;20257;-88
2021/12/07 13:09:18;;;;;;;38.58;21.83;;;6.40;99.90;;;;;;4995793;28;20199;-92
2021/12/07 13:12:00;;;;;;;34.72;22.50;;;6.40;99.90;;;;;;5014132;28;20192;-91
2021/12/07 13:14:25;;;;;;;35.58;20.92;;;6.40;99.90;;;;;;4992825;28;20191;-92
2021/12/07 13:16:52;;;;;;;31.40;20.30;;;6.30;99.90;;;;;;4996704;28;20206;-90
2021/12/07 13:19:19;;;;;;;38.50;21.27;;;6.30;99.90;;;;;;5015232;28;20206;-88
2021/12/07 13:21:47;;;;;;;32.45;20.15;;;6.30;99.90;;;;;;5013581;28;20199;-89
2021/12/07 13:24:29;;;;;;;34.40;19.85;;;6.20;99.90;;;;;;4996490;28;20544;-89
2021/12/07 13:26:55;;;;;;;34.17;20.55;;;6.20;99.90;;;;;;5012470;28;20194;-89
2021/12/07 13:29:24;;;;;;;33.83;20.20;;;6.20;99.90;;;;;;4996413;28;20196;-89
2021/12/07 13:31:54;;;;;;;37.80;21.35;;;6.10;99.90;;;;;;5008391;28;20191;-88
2021/12/07 13:34:34;;;;;;;34.80;21.02;;;6.10;99.90;;;;;;4994972;28;20199;-89
2021/12/07 13:37:12;;;;;;;33.10;20.55;;;6.10;99.90;;;;;;4983097;28;20337;-93
2021/12/07 13:39:50;;;;;;;34.78;20.35;;;6.00;99.90;;;;;;5021616;28;20188;-94
2021/12/07 13:42:20;;;;;;;38.95;21.83;;;6.00;99.90;;;;;;4996777;28;20174;-93
2021/12/07 13:44:48;;;;;;;36.78;21.67;;;6.00;99.90;;;;;;5032303;28;20601;-92
2021/12/07 13:47:16;;;;;;;34.13;21.35;;;5.90;99.90;;;;;;5010150;28;20277;-93
2021/12/07 13:49:48;;;;;;;30.30;19.80;;;5.90;99.90;;;;;;5013858;28;20182;-93
2021/12/07 13:52:17;;;;;;;34.28;20.25;;;5.90;99.90;;;;;;5015156;28;20616;-90
2021/12/07 13:54:49;;;;;;;36.78;22.83;;;5.90;99.90;;;;;;5009471;28;20549;-89
2021/12/07 13:57:22;;;;;;;36.03;20.92;;;5.90;99.90;;;;;;5020115;28;20206;-90
2021/12/07 14:00:06;;;;;;;37.30;21.88;;;5.90;99.90;;;;;;5012919;28;20210;-90
2021/12/07 14:02:33;;;;;;;33.28;20.55;;;6.00;99.90;;;;;;5036864;28;20186;-90
2021/12/07 14:05:20;;;;;;;31.88;20.08;;;6.00;99.90;;;;;;5016933;28;20714;-89
2021/12/07 14:07:48;;;;;;;32.28;20.75;;;6.10;99.90;;;;;;5033712;28;20178;-93
2021/12/07 14:10:19;;;;;;;34.80;21.42;;;6.20;99.90;;;;;;5025663;28;20717;-90
2021/12/07 14:12:47;;;;;;;31.30;19.90;;;6.20;99.90;;;;;;5014656;28;20201;-94
2021/12/07 14:15:17;;;;;;;34.67;21.40;;;6.20;99.90;;;;;;5009439;28;20201;-91
2021/12/07 14:17:48;;;;;;;34.40;20.75;;;6.20;99.90;;;;;;5008271;28;20255;-90
2021/12/07 14:20:39;;;;;;;35.22;20.05;;;6.10;99.90;;;;;;5025862;28;20205;-93
2021/12/07 14:23:15;;;;;;;34.83;22.73;;;6.10;99.90;;;;;;5014257;28;20390;-91
2021/12/07 14:26:05;;;;;;;32.45;19.83;;;6.00;99.90;;;;;;5037846;28;20211;-90
2021/12/07 14:28:41;;;;;;;31.05;19.35;;;5.90;99.90;;;;;;5007570;28;20265;-94
2021/12/07 14:31:25;;;;;;;34.33;19.77;;;5.90;99.90;;;;;;5013197;28;20197;-94
2021/12/07 14:34:03;;;;;;;34.88;21.95;;;5.80;99.90;;;;;;5028241;28;20202;-90
2021/12/07 14:36:32;;;;;;;34.45;20.17;;;5.80;99.90;;;;;;5038322;28;20474;-90
2021/12/07 14:39:05;;;;;;;49.60;25.40;;;5.70;99.90;;;;;;5021169;28;20260;-90
2021/12/07 14:41:32;;;;;;;45.45;25.38;;;5.70;99.90;;;;;;5012302;28;20572;-90